Time;durP1;ratioP1;P1;durP2;ratioP2;P2;SDS_P1;SDS_P2;PMS_P1;PMS_P2;Temp;Humidity;BMP_temperature;BMP_pressure;BME280_temperature;BME280_humidity;BME280_pressure;Samples;Min_cycle;Max_cycle;Signal;HPM_P1;HPM_P2
2022/11/28 09:41:33;;;;;;;12.98;11.10;;;;;;;2.55;76.76;100618.14;1809572;78;22766;-39
2022/11/28 09:44:17;;;;;;;15.83;13.13;;;;;;;2.68;75.64;100621.28;1808808;79;21570;-38
2022/11/28 09:46:47;;;;;;;17.05;13.10;;;;;;;2.72;75.43;100624.47;1816607;79;21157;-39
2022/11/28 09:49:31;;;;;;;11.78;9.55;;;;;;;2.78;74.25;100627.38;1816601;79;21061;-39
2022/11/28 09:52:18;;;;;;;17.12;13.20;;;;;;;2.74;73.54;100619.64;1816465;79;21285;-38
2022/11/28 09:55:12;;;;;;;17.07;11.45;;;;;;;2.63;73.39;100619.43;1816500;79;20919;-39
2022/11/28 09:57:42;;;;;;;15.58;11.93;;;;;;;2.61;73.24;100621.03;1816601;78;21101;-38
2022/11/28 10:00:21;;;;;;;13.65;10.50;;;;;;;2.65;73.37;100621.84;1782787;79;21076;-38
2022/11/28 10:03:11;;;;;;;14.53;10.98;;;;;;;2.71;73.42;100623.42;1816554;79;21534;-38
2022/11/28 10:05:46;;;;;;;12.40;10.32;;;;;;;2.72;73.55;100621.78;1816422;79;20990;-38
2022/11/28 10:08:30;;;;;;;15.43;11.35;;;;;;;2.73;73.09;100616.70;1785555;79;21034;-38
2022/11/28 10:11:12;;;;;;;12.25;9.60;;;;;;;2.71;72.89;100618.06;1816484;79;21002;-38
2022/11/28 10:14:26;;;;;;;13.40;10.00;;;;;;;2.72;72.98;100616.43;1816681;79;22051;-38
2022/11/28 10:17:20;;;;;;;14.00;10.43;;;;;;;2.85;72.87;100604.33;1816582;79;20987;-39
2022/11/28 10:19:57;;;;;;;17.32;11.97;;;;;;;2.98;72.17;100600.48;1780612;80;20969;-38
2022/11/28 10:22:46;;;;;;;19.98;13.03;;;;;;;3.01;71.64;100599.10;1780597;80;20977;-38
2022/11/28 10:25:18;;;;;;;15.03;11.27;;;;;;;3.02;71.68;100592.14;1803092;79;21054;-39
2022/11/28 10:27:45;;;;;;;12.68;10.08;;;;;;;3.08;72.06;100598.27;1816608;78;21300;-39
2022/11/28 10:30:23;;;;;;;15.45;11.28;;;;;;;3.19;71.81;100596.31;1816580;79;20990;-39
2022/11/28 10:33:04;;;;;;;14.73;10.50;;;;;;;3.25;70.95;100603.20;1810973;79;21001;-40
2022/11/28 10:35:52;;;;;;;22.55;13.30;;;;;;;3.24;70.74;100601.09;1816619;79;21018;-39
2022/11/28 10:38:24;;;;;;;17.75;11.88;;;;;;;3.28;70.25;100592.75;1817016;79;20962;-38
2022/11/28 10:41:04;;;;;;;19.12;12.23;;;;;;;3.28;69.97;100599.98;1807369;79;21235;-39
2022/11/28 10:43:43;;;;;;;14.28;10.32;;;;;;;3.18;69.66;100598.72;1805420;78;20964;-38
2022/11/28 10:46:24;;;;;;;13.43;9.85;;;;;;;2.97;69.78;100596.19;1805354;79;20971;-39
2022/11/28 10:49:25;;;;;;;13.43;9.73;;;;;;;2.83;70.06;100606.47;1805349;78;21014;-38
2022/11/28 10:52:13;;;;;;;14.50;10.38;;;;;;;2.78;70.54;100605.96;1805044;79;21047;-38
2022/11/28 10:55:23;;;;;;;16.07;11.10;;;;;;;2.82;70.56;100609.67;1804655;79;21264;-39
2022/11/28 10:58:12;;;;;;;15.45;11.43;;;;;;;2.82;70.59;100616.91;1804484;79;20975;-38
2022/11/28 11:00:39;;;;;;;19.87;13.95;;;;;;;2.74;70.68;100619.64;1804733;79;21571;-38
2022/11/28 11:03:09;;;;;;;18.80;13.95;;;;;;;2.69;70.80;100614.86;1804916;79;21489;-39
2022/11/28 11:05:36;;;;;;;19.12;13.72;;;;;;;2.62;70.84;100617.29;1791577;79;20995;-39
2022/11/28 11:08:21;;;;;;;19.02;13.70;;;;;;;2.54;70.91;100610.37;1804886;79;21234;-39
2022/11/28 11:10:52;;;;;;;19.73;14.53;;;;;;;2.53;71.33;100610.11;1804791;79;21558;-39
2022/11/28 11:13:23;;;;;;;23.77;15.40;;;;;;;2.53;71.72;100618.14;1803322;79;20951;-39
2022/11/28 11:16:10;;;;;;;25.80;16.85;;;;;;;2.51;72.10;100618.44;1805024;79;21568;-39
2022/11/28 11:18:46;;;;;;;24.02;15.53;;;;;;;2.53;72.41;100616.80;1804329;79;21019;-39
2022/11/28 11:21:24;;;;;;;27.32;17.62;;;;;;;2.53;72.26;100614.13;1804201;79;23098;-39
2022/11/28 11:24:17;;;;;;;28.80;17.67;;;;;;;2.54;72.21;100611.18;1804571;79;21046;-39
2022/11/28 11:26:46;;;;;;;28.10;17.77;;;;;;;2.49;72.35;100603.71;1804975;79;20966;-38
2022/11/28 11:29:24;;;;;;;26.07;16.37;;;;;;;2.47;72.76;100603.20;1804575;79;20934;-39
2022/11/28 11:31:52;;;;;;;27.55;17.48;;;;;;;2.49;72.92;100599.70;1804485;79;21023;-39
2022/11/28 11:34:21;;;;;;;26.25;16.95;;;;;;;2.54;72.85;100607.16;1805033;79;21242;-39
2022/11/28 11:36:49;;;;;;;29.75;18.32;;;;;;;2.62;72.58;100603.09;1805364;79;20911;-39
2022/11/28 11:39:20;;;;;;;30.92;18.70;;;;;;;2.71;72.71;100602.00;1804909;79;21002;-39
2022/11/28 11:41:50;;;;;;;32.95;20.02;;;;;;;2.76;72.63;100606.77;1804975;79;20965;-38
2022/11/28 11:44:29;;;;;;;33.63;20.40;;;;;;;2.75;72.30;100603.05;1805055;79;20939;-39
2022/11/28 11:47:02;;;;;;;29.77;18.40;;;;;;;2.65;72.18;100606.58;1805047;79;21137;-39
2022/11/28 11:49:34;;;;;;;31.87;19.48;;;;;;;2.57;72.52;100613.30;1804960;79;20915;-39
2022/11/28 11:52:15;;;;;;;38.58;23.02;;;;;;;2.59;72.68;100613.03;1804668;79;20952;-39
2022/11/28 11:55:05;;;;;;;38.45;23.27;;;;;;;2.62;72.62;100615.14;1804790;79;20959;-39
2022/11/28 11:57:48;;;;;;;39.53;24.12;;;;;;;2.57;72.90;100615.17;1805712;79;21035;-38
2022/11/28 12:00:21;;;;;;;41.95;25.65;;;;;;;2.53;73.29;100615.46;1804526;79;21235;-38
2022/11/28 12:02:59;;;;;;;43.15;25.20;;;;;;;2.50;73.51;100613.34;1804505;79;20939;-39
2022/11/28 12:05:30;;;;;;;45.75;26.68;;;;;;;2.52;73.49;100617.34;1804834;79;21022;-39
2022/11/28 12:08:13;;;;;;;42.00;26.52;;;;;;;2.56;73.37;100614.93;1804501;79;20963;-39
2022/11/28 12:11:24;;;;;;;54.38;29.20;;;;;;;2.52;73.30;100611.98;1804844;79;21017;-38
2022/11/28 12:13:51;;;;;;;55.33;30.75;;;;;;;2.42;73.54;100608.58;1804659;79;21129;-39
2022/11/28 12:16:47;;;;;;;53.95;28.57;;;;;;;2.34;74.03;100618.50;1804737;79;21027;-39
2022/11/28 12:19:39;;;;;;;46.98;28.42;;;;;;;2.36;74.14;100611.01;1804598;79;21003;-38
2022/11/28 12:22:39;;;;;;;55.30;31.07;;;;;;;2.46;74.36;100613.64;1804829;79;20975;-38
2022/11/28 12:25:34;;;;;;;49.55;30.57;;;;;;;2.57;74.24;100616.51;1804754;79;21019;-38
2022/11/28 12:28:26;;;;;;;57.40;33.05;;;;;;;2.53;74.09;100610.91;1804685;79;21196;-38
2022/11/28 12:31:18;;;;;;;61.80;34.53;;;;;;;2.52;74.45;100618.67;1802436;79;21484;-39
2022/11/28 12:34:36;;;;;;;60.12;32.67;;;;;;;2.45;73.80;100621.41;1804787;79;21033;-39
2022/11/28 12:37:30;;;;;;;54.55;30.57;;;;;;;2.34;74.00;100618.50;1804788;79;21346;-39
2022/11/28 12:40:05;;;;;;;55.08;32.35;;;;;;;2.25;74.28;100624.95;1804136;79;21148;-39
2022/11/28 12:42:58;;;;;;;64.10;32.28;;;;;;;2.15;74.86;100624.45;1798362;79;22203;-39
2022/11/28 12:45:46;;;;;;;59.48;33.73;;;;;;;2.09;75.07;100624.20;1804739;79;20911;-38
2022/11/28 12:48:33;;;;;;;58.68;31.40;;;;;;;2.02;75.57;100622.36;1804722;79;20943;-38
2022/11/28 12:51:11;;;;;;;56.53;30.90;;;;;;;2.09;75.71;100622.86;1804407;79;21034;-39
2022/11/28 12:53:49;;;;;;;60.05;34.85;;;;;;;2.22;75.80;100622.03;1804402;79;21587;-38
2022/11/28 12:56:40;;;;;;;56.80;33.65;;;;;;;2.34;75.79;100622.51;1804659;79;21200;-39
2022/11/28 12:59:36;;;;;;;60.08;33.92;;;;;;;2.38;75.51;100624.89;1804616;79;21065;-38
2022/11/28 13:02:34;;;;;;;61.37;35.05;;;;;;;2.33;75.23;100624.91;1800648;79;21014;-39
2022/11/28 13:05:15;;;;;;;61.15;34.88;;;;;;;2.29;75.23;100634.56;1804600;79;20970;-38
2022/11/28 13:08:07;;;;;;;59.53;33.05;;;;;;;2.29;75.17;100629.22;1804755;79;20988;-38
2022/11/28 13:11:05;;;;;;;61.33;34.55;;;;;;;2.37;75.36;100630.01;1803743;79;23253;-38
2022/11/28 13:13:47;;;;;;;68.72;36.17;;;;;;;2.38;75.39;100631.59;1805075;79;21582;-38
2022/11/28 13:16:34;;;;;;;62.13;35.20;;;;;;;2.35;75.07;100637.50;1805126;79;21019;-39
2022/11/28 13:19:41;;;;;;;60.40;33.67;;;;;;;2.31;75.19;100639.12;1789431;79;20935;-39
2022/11/28 13:22:26;;;;;;;60.88;33.85;;;;;;;2.28;75.26;100640.98;1805052;79;21054;-38
2022/11/28 13:25:38;;;;;;;58.87;35.15;;;;;;;2.30;75.21;100649.55;1804725;79;21141;-38
2022/11/28 13:28:41;;;;;;;63.50;33.78;;;;;;;2.26;75.39;100643.16;1804669;79;21006;-38
2022/11/28 13:31:30;;;;;;;56.85;32.88;;;;;;;2.30;75.84;100645.55;1804612;79;21010;-39
2022/11/28 13:33:57;;;;;;;60.15;32.93;;;;;;;2.33;75.71;100644.98;1804716;79;21353;-39
2022/11/28 13:36:34;;;;;;;57.48;31.95;;;;;;;2.37;75.42;100646.06;1804737;79;21516;-39
2022/11/28 13:39:10;;;;;;;52.08;31.50;;;;;;;2.44;75.29;100647.36;1805037;79;21069;-39
2022/11/28 13:41:47;;;;;;;61.70;33.08;;;;;;;2.50;75.36;100650.28;1810167;79;21038;-39
2022/11/28 13:44:19;;;;;;;59.50;32.45;;;;;;;2.57;75.46;100643.28;1813210;79;21091;-39
2022/11/28 13:46:46;;;;;;;58.33;33.15;;;;;;;2.62;75.23;100644.06;1813372;79;21512;-38
2022/11/28 13:49:25;;;;;;;53.20;29.98;;;;;;;2.63;74.96;100650.22;1813438;79;21524;-39
2022/11/28 13:52:21;;;;;;;57.73;29.20;;;;;;;2.59;74.88;100642.48;1813311;79;21929;-39
2022/11/28 13:54:54;;;;;;;50.78;29.70;;;;;;;2.55;74.78;100648.13;1813251;79;21481;-39
2022/11/28 13:57:38;;;;;;;55.12;30.85;;;;;;;2.56;74.77;100639.02;1813349;79;20998;-39
2022/11/28 14:00:20;;;;;;;52.55;29.07;;;;;;;2.57;74.91;100644.61;1813213;79;21002;-39
2022/11/28 14:02:57;;;;;;;50.70;30.77;;;;;;;2.57;75.01;100640.06;1812286;79;21023;-38
2022/11/28 14:05:34;;;;;;;52.95;30.02;;;;;;;2.59;74.94;100650.51;1813180;79;21142;-39
2022/11/28 14:08:02;;;;;;;52.33;29.77;;;;;;;2.61;74.93;100645.12;1813321;79;21027;-39
2022/11/28 14:11:10;;;;;;;56.73;29.10;;;;;;;2.62;74.81;100648.61;1813429;79;21017;-39
2022/11/28 14:13:51;;;;;;;44.45;27.82;;;;;;;2.62;74.49;100641.38;1813139;79;20995;-38
2022/11/28 14:16:39;;;;;;;50.98;28.62;;;;;;;2.68;74.36;100648.05;1813067;79;21352;-39
2022/11/28 14:19:31;;;;;;;48.65;27.80;;;;;;;2.68;74.32;100644.84;1813347;79;21496;-39
2022/11/28 14:22:06;;;;;;;49.95;27.67;;;;;;;2.61;74.29;100643.79;1813349;79;21064;-38
2022/11/28 14:25:02;;;;;;;57.60;28.80;;;;;;;2.62;74.65;100644.59;1813089;79;20993;-39
2022/11/28 14:27:33;;;;;;;53.95;26.27;;;;;;;2.63;74.63;100642.98;1813413;79;20938;-38
2022/11/28 14:29:59;;;;;;;45.38;25.90;;;;;;;2.66;74.24;100645.67;1813768;79;21023;-39
2022/11/28 14:32:37;;;;;;;43.00;25.65;;;;;;;2.65;74.15;100640.05;1813432;79;21921;-39
2022/11/28 14:35:08;;;;;;;41.98;24.95;;;;;;;2.66;74.19;100644.87;1812185;79;20966;-39
2022/11/28 14:37:48;;;;;;;50.73;24.95;;;;;;;2.62;74.37;100639.24;1812437;79;21085;-39
2022/11/28 14:40:57;;;;;;;43.33;25.40;;;;;;;2.65;74.59;100638.70;1813248;79;20916;-39
2022/11/28 14:43:28;;;;;;;41.35;22.48;;;;;;;2.66;74.50;100643.53;1813306;79;21504;-38
2022/11/28 22:46:20;;;;;;;38.53;13.05;;;;;;;1.87;90.30;100617.05;1836440;78;22717;-38
2022/11/28 22:48:48;;;;;;;50.15;14.63;;;;;;;1.91;89.44;100623.45;1795869;79;20977;-38
2022/11/28 22:51:18;;;;;;;39.20;12.98;;;;;;;1.87;89.68;100619.72;1788387;80;21617;-38
2022/11/28 22:53:46;;;;;;;30.25;12.58;;;;;;;1.86;90.09;100617.31;1757804;80;20955;-39
2022/11/28 22:56:14;;;;;;;29.35;12.82;;;;;;;1.92;90.08;100619.72;1788233;80;20950;-38
2022/11/28 22:58:44;;;;;;;40.95;13.20;;;;;;;2.02;89.47;100615.68;1788466;80;21907;-38
2022/11/28 23:01:16;;;;;;;47.90;12.40;;;;;;;2.01;89.44;100621.29;1788289;80;20915;-38
2022/11/28 23:03:43;;;;;;;16.45;10.98;;;;;;;1.99;89.22;100616.73;1788390;80;21132;-39
2022/11/28 23:06:16;;;;;;;31.95;12.15;;;;;;;2.02;89.29;100627.72;1762861;79;21471;-38
2022/11/28 23:08:43;;;;;;;29.77;12.30;;;;;;;2.06;88.79;100626.09;1752745;81;21509;-38
2022/11/28 23:11:13;;;;;;;37.30;12.60;;;;;;;2.05;88.55;100621.81;1719630;83;21641;-38
2022/11/28 23:13:40;;;;;;;13.78;9.18;;;;;;;2.02;88.58;100625.58;1704099;84;21058;-39
2022/11/28 23:16:18;;;;;;;22.75;11.18;;;;;;;2.01;88.60;100628.78;1704009;84;23132;-39
2022/11/28 23:18:46;;;;;;;24.00;11.75;;;;;;;2.07;88.36;100623.69;1704139;84;21053;-39
2022/11/28 23:21:14;;;;;;;24.95;11.73;;;;;;;2.09;88.02;100619.38;1717296;83;21048;-39
2022/11/28 23:23:42;;;;;;;30.10;11.08;;;;;;;2.05;87.92;100625.02;1717010;83;21295;-39
2022/11/28 23:26:14;;;;;;;38.75;10.88;;;;;;;2.00;87.89;100623.16;1717172;83;21095;-39
2022/11/28 23:28:41;;;;;;;44.15;10.85;;;;;;;2.01;87.47;100622.63;1716545;83;23154;-39
2022/11/28 23:31:12;;;;;;;46.30;11.10;;;;;;;1.97;87.36;100618.37;1716934;83;21570;-39
2022/11/28 23:33:39;;;;;;;26.85;9.45;;;;;;;1.95;87.37;100623.17;1716543;83;21057;-39
2022/11/28 23:36:20;;;;;;;22.45;9.68;;;;;;;2.00;87.37;100617.81;1716856;83;21530;-39
2022/11/28 23:38:51;;;;;;;28.40;10.82;;;;;;;2.07;86.88;100622.35;1717015;83;21060;-39
2022/11/28 23:41:18;;;;;;;36.95;10.30;;;;;;;2.07;87.05;100620.21;1716171;83;21179;-39
2022/11/28 23:43:44;;;;;;;29.25;10.43;;;;;;;2.05;86.94;100617.80;1716946;83;21033;-39
2022/11/28 23:46:12;;;;;;;36.65;10.08;;;;;;;2.09;86.67;100616.70;1710655;83;21025;-39
2022/11/28 23:48:39;;;;;;;25.20;10.48;;;;;;;2.14;86.38;100615.36;1709277;84;21053;-39
2022/11/28 23:51:07;;;;;;;47.73;10.60;;;;;;;2.11;86.41;100607.36;1709315;84;21514;-39
2022/11/28 23:53:34;;;;;;;17.42;9.48;;;;;;;2.08;86.39;100607.88;1703323;84;21274;-40
2022/11/28 23:56:16;;;;;;;22.45;9.93;;;;;;;2.09;86.22;100614.84;1708953;84;20969;-39
2022/11/28 23:58:42;;;;;;;36.30;10.28;;;;;;;2.14;85.92;100617.50;1707998;84;21021;-39
